createdAt,value
2022-11-13T00:01:39.510Z,100486.41
2022-11-13T00:04:08.067Z,100484.47
2022-11-13T00:06:42.949Z,100487.34
2022-11-13T00:09:12.651Z,100477.66
2022-11-13T00:11:42.661Z,100471.78
2022-11-13T00:14:15.503Z,100471.88
2022-11-13T00:16:46.127Z,100467.81
2022-11-13T00:19:14.596Z,100473.81
2022-11-13T00:21:44.126Z,100474.16
2022-11-13T00:24:13.536Z,100476.06
2022-11-13T00:26:45.253Z,100477.69
2022-11-13T00:29:13.978Z,100477.22
2022-11-13T00:31:42.530Z,100471.72
2022-11-13T00:34:40.945Z,100470.91
2022-11-13T00:37:00.931Z,100456.19
2022-11-13T00:39:29.636Z,100467.63
2022-11-13T00:41:59.466Z,100462.50
2022-11-13T00:44:27.917Z,100466.09
2022-11-13T00:46:56.287Z,100469.63
2022-11-13T00:49:24.659Z,100476.59
2022-11-13T00:51:53.075Z,100476.38
2022-11-13T00:54:21.676Z,100462.59
2022-11-13T00:56:50.068Z,100464.59
2022-11-13T00:59:20.176Z,100454.81
2022-11-13T01:01:48.614Z,100453.25
2022-11-13T01:04:17.147Z,100448.34
2022-11-13T01:06:47.408Z,100449.63
2022-11-13T01:09:15.797Z,100446.19
2022-11-13T01:11:44.235Z,100440.09
2022-11-13T01:14:12.719Z,100437.47
2022-11-13T01:16:42.515Z,100429.59
2022-11-13T01:19:11.057Z,100428.00
2022-11-13T01:21:39.507Z,100423.59
2022-11-13T01:24:08.235Z,100418.44
2022-11-13T01:26:36.676Z,100417.72
2022-11-13T01:29:05.686Z,100421.31
2022-11-13T01:31:34.066Z,100418.69
2022-11-13T01:34:03.926Z,100416.91
2022-11-13T01:36:32.367Z,100407.44
2022-11-13T01:39:00.806Z,100404.00
2022-11-13T01:41:31.649Z,100397.91
2022-11-13T01:44:01.505Z,100398.00
2022-11-13T01:46:33.936Z,100388.31
2022-11-13T01:49:22.877Z,100386.66
2022-11-13T01:51:56.458Z,100385.00
2022-11-13T01:54:29.506Z,100390.34
2022-11-13T01:57:01.098Z,100379.97
2022-11-13T01:59:37.819Z,100383.53
2022-11-13T02:02:08.829Z,100380.91
2022-11-13T02:04:38.846Z,100379.97
2022-11-13T02:07:11.016Z,100375.03
2022-11-13T02:09:46.966Z,100360.13
2022-11-13T02:12:37.007Z,100349.75
2022-11-13T02:15:08.807Z,100341.84
2022-11-13T02:17:43.416Z,100336.72
2022-11-13T02:20:15.568Z,100319.41
2022-11-13T02:22:52.017Z,100318.53
2022-11-13T02:25:26.606Z,100304.59
2022-11-13T02:28:03.668Z,100298.50
2022-11-13T02:30:34.616Z,100291.69
2022-11-13T02:33:03.098Z,100296.00
2022-11-13T02:35:34.316Z,100293.47
2022-11-13T02:38:05.415Z,100294.44
2022-11-13T02:40:35.486Z,100294.44
2022-11-13T02:43:03.828Z,100284.88
2022-11-13T02:45:32.196Z,100291.09
2022-11-13T02:48:01.929Z,100289.41
2022-11-13T02:50:30.436Z,100279.75
2022-11-13T02:52:59.073Z,100285.00
2022-11-13T02:55:27.576Z,100282.47
2022-11-13T02:57:57.359Z,100276.53
2022-11-13T03:00:26.006Z,100286.19
2022-11-13T03:02:56.046Z,100280.94
2022-11-13T03:05:24.867Z,100283.56
2022-11-13T03:07:53.546Z,100274.97
2022-11-13T03:10:22.106Z,100282.09
2022-11-13T03:12:50.478Z,100268.13
2022-11-13T03:15:20.456Z,100272.44
2022-11-13T03:17:48.916Z,100275.19
2022-11-13T03:20:17.776Z,100273.53
2022-11-13T03:22:46.126Z,100276.25
2022-11-13T03:25:14.516Z,100278.88
2022-11-13T03:27:42.846Z,100269.34
2022-11-13T03:32:49.656Z,100256.31
2022-11-13T03:35:18.096Z,100260.72
2022-11-13T03:37:46.456Z,100270.38
2022-11-13T03:40:14.875Z,100283.41
2022-11-13T03:42:43.311Z,100277.44
2022-11-13T03:45:11.905Z,100281.84
2022-11-13T03:47:40.276Z,100276.69
2022-11-13T03:50:10.829Z,100269.66
2022-11-13T03:52:39.199Z,100267.03
2022-11-13T03:55:08.186Z,100261.91
2022-11-13T03:57:36.576Z,100255.00
2022-11-13T04:00:05.586Z,100262.16
2022-11-13T04:02:34.026Z,100254.25
2022-11-13T04:05:02.406Z,100244.59
2022-11-13T04:07:32.255Z,100236.84
2022-11-13T04:10:00.705Z,100245.66
2022-11-13T04:12:29.326Z,100237.91
2022-11-13T04:14:57.706Z,100234.47
2022-11-13T04:17:26.116Z,100236.22
2022-11-13T04:19:54.515Z,100237.78
2022-11-13T04:22:22.875Z,100238.16
2022-11-13T04:24:52.795Z,100231.84
2022-11-13T04:27:21.146Z,100222.25
2022-11-13T04:29:49.457Z,100231.84
2022-11-13T04:32:18.005Z,100223.09
2022-11-13T04:34:46.345Z,100219.03
2022-11-13T04:37:14.749Z,100200.56
2022-11-13T04:39:43.155Z,100201.50
2022-11-13T04:42:31.017Z,100188.50
2022-11-13T04:44:59.407Z,100189.34
2022-11-13T04:47:27.795Z,100184.22
2022-11-13T04:49:56.175Z,100186.72
2022-11-13T04:52:24.578Z,100191.97
2022-11-13T04:54:52.975Z,100178.09
2022-11-13T04:57:22.784Z,100179.06
2022-11-13T04:59:51.386Z,100170.38
2022-11-13T05:02:19.945Z,100165.22
2022-11-13T05:04:48.285Z,100160.81
2022-11-13T05:07:16.778Z,100165.94
2022-11-13T05:09:45.208Z,100150.31
2022-11-13T05:12:13.737Z,100154.72
2022-11-13T05:14:43.575Z,100142.56
2022-11-13T05:17:13.895Z,100136.47
2022-11-13T05:19:42.285Z,100134.69
2022-11-13T05:22:11.067Z,100127.78
2022-11-13T05:24:39.415Z,100141.72
2022-11-13T05:27:10.406Z,100133.94
2022-11-13T05:29:42.685Z,100137.31
2022-11-13T05:32:11.088Z,100139.19
2022-11-13T05:34:39.544Z,100137.44
2022-11-13T05:37:07.924Z,100138.28
2022-11-13T05:39:36.287Z,100141.81
2022-11-13T05:42:05.873Z,100131.47
2022-11-13T05:44:34.325Z,100128.94
2022-11-13T05:47:04.147Z,100122.81
2022-11-13T05:49:32.735Z,100119.38
2022-11-13T05:52:01.164Z,100111.50
2022-11-13T05:54:29.525Z,100114.34
2022-11-13T05:56:57.904Z,100109.94
2022-11-13T05:59:26.353Z,100110.78
2022-11-13T06:01:54.735Z,100104.69
2022-11-13T06:04:24.564Z,100101.13
2022-11-13T06:06:53.081Z,100093.59
2022-11-13T06:09:21.634Z,100098.75
2022-11-13T06:11:50.054Z,100100.53
2022-11-13T06:14:18.476Z,100094.44
2022-11-13T06:16:46.855Z,100089.19
2022-11-13T06:19:15.224Z,100086.56
2022-11-13T06:21:45.103Z,100086.69
2022-11-13T06:24:14.565Z,100090.28
2022-11-13T06:26:43.114Z,100099.06
2022-11-13T06:29:13.614Z,100092.03
2022-11-13T06:31:42.294Z,100099.91
2022-11-13T06:34:10.674Z,100108.63
2022-11-13T06:36:39.254Z,100119.13
2022-11-13T06:39:10.611Z,100120.91
2022-11-13T06:41:40.245Z,100125.31
2022-11-13T06:44:08.735Z,100127.09
2022-11-13T06:46:37.336Z,100126.16
2022-11-13T06:49:05.804Z,100129.13
2022-11-13T06:51:34.142Z,100129.13
2022-11-13T06:54:02.555Z,100118.75
2022-11-13T06:56:32.415Z,100113.63
2022-11-13T06:59:00.776Z,100117.81
2022-11-13T07:01:29.291Z,100120.28
2022-11-13T07:03:57.795Z,100116.13
2022-11-13T07:06:26.455Z,100116.00
2022-11-13T07:08:54.856Z,100117.91
2022-11-13T07:11:24.795Z,100114.44
2022-11-13T07:13:54.647Z,100117.06
2022-11-13T07:16:23.015Z,100119.69
2022-11-13T07:18:52.265Z,100119.09
2022-11-13T07:21:21.436Z,100118.03
2022-11-13T07:23:50.971Z,100123.28
2022-11-13T07:26:19.957Z,100117.19
2022-11-13T07:28:49.025Z,100119.81
2022-11-13T07:31:19.425Z,100117.19
2022-11-13T07:33:49.796Z,100120.75
2022-11-13T07:36:18.205Z,100125.06
2022-11-13T07:38:46.725Z,100116.34
2022-11-13T07:41:15.106Z,100118.28
2022-11-13T07:43:43.475Z,100121.72
2022-11-13T07:46:12.016Z,100112.19
2022-11-13T07:48:42.046Z,100127.94
2022-11-13T07:51:10.446Z,100110.50
2022-11-13T07:53:39.237Z,100105.03
2022-11-13T07:56:08.666Z,100107.41
2022-11-13T07:58:37.268Z,100107.78
2022-11-13T08:01:06.808Z,100105.25
2022-11-13T08:03:35.266Z,100101.09
2022-11-13T08:06:07.532Z,100091.22
2022-11-13T08:08:36.687Z,100084.88
2022-11-13T08:11:06.620Z,100096.09
2022-11-13T08:13:35.686Z,100095.50
2022-11-13T08:16:04.997Z,100094.53
2022-11-13T08:18:33.880Z,100101.56
2022-11-13T08:21:08.077Z,100096.44
2022-11-13T08:23:42.598Z,100090.97
2022-11-13T08:26:11.646Z,100087.63
2022-11-13T08:28:40.238Z,100084.25
2022-11-13T08:31:12.446Z,100087.72
2022-11-13T08:33:41.348Z,100082.59
2022-11-13T08:36:12.537Z,100079.03
2022-11-13T08:38:41.006Z,100085.97
2022-11-13T08:41:10.226Z,100079.63
2022-11-13T08:43:38.736Z,100089.88
2022-11-13T08:46:07.796Z,100087.16
2022-11-13T08:48:37.827Z,100085.84
2022-11-13T08:51:06.476Z,100088.59
2022-11-13T08:53:36.307Z,100094.06
2022-11-13T08:56:05.228Z,100094.44
2022-11-13T08:58:33.657Z,100096.75
2022-11-13T09:01:02.259Z,100092.66
2022-11-13T09:03:30.845Z,100093.81
2022-11-13T09:05:59.346Z,100094.38
2022-11-13T09:08:28.059Z,100095.44
2022-11-13T09:10:58.036Z,100101.31
2022-11-13T09:13:26.416Z,100101.66
2022-11-13T09:15:54.829Z,100107.13
2022-11-13T09:18:23.187Z,100096.25
2022-11-13T09:20:51.606Z,100101.22
2022-11-13T09:23:20.026Z,100090.13
2022-11-13T09:25:49.187Z,100087.63
2022-11-13T09:28:19.036Z,100080.91
2022-11-13T09:30:47.437Z,100080.00
2022-11-13T09:33:16.007Z,100076.50
2022-11-13T09:35:44.896Z,100067.59
2022-11-13T09:38:37.285Z,100058.59
2022-11-13T09:41:10.170Z,100058.00
2022-11-13T09:43:43.766Z,100057.19
2022-11-13T09:46:19.438Z,100049.69
2022-11-13T09:48:50.146Z,100051.47
2022-11-13T09:51:20.777Z,100055.66
2022-11-13T09:53:49.816Z,100054.31
2022-11-13T09:56:28.096Z,100046.34
2022-11-13T09:59:06.546Z,100046.47
2022-11-13T10:01:45.346Z,100050.19
2022-11-13T10:04:17.566Z,100047.72
2022-11-13T10:06:56.665Z,100044.97
2022-11-13T10:09:34.949Z,100038.66
2022-11-13T10:12:07.843Z,100045.34
2022-11-13T10:14:43.046Z,100032.47
2022-11-13T10:17:19.792Z,100044.13
2022-11-13T10:19:57.616Z,100042.13
2022-11-13T10:22:34.134Z,100051.03
2022-11-13T10:25:13.047Z,100043.41
2022-11-13T10:27:41.935Z,100047.00
2022-11-13T10:30:19.293Z,100054.13
2022-11-13T10:32:48.286Z,100049.84
2022-11-13T10:35:45.756Z,100061.16
2022-11-13T10:38:22.577Z,100060.22
2022-11-13T10:40:51.055Z,100053.53
2022-11-13T10:43:21.516Z,100051.94
2022-11-13T10:45:59.687Z,100045.06
2022-11-13T10:48:29.964Z,100046.84
2022-11-13T10:51:00.868Z,100054.56
2022-11-13T10:53:39.137Z,100052.91
2022-11-13T10:56:21.875Z,100043.03
2022-11-13T10:59:02.876Z,100032.44
2022-11-13T11:01:33.028Z,100019.22
2022-11-13T11:04:01.477Z,100030.19
2022-11-13T11:07:04.493Z,100013.41
2022-11-13T11:09:27.468Z,100025.19
2022-11-13T11:12:21.202Z,100015.44
2022-11-13T11:15:17.786Z,100017.97
2022-11-13T11:17:50.157Z,100015.22
2022-11-13T11:20:58.867Z,100018.66
2022-11-13T11:24:30.868Z,100022.97
2022-11-13T11:28:13.396Z,100005.09
2022-11-13T11:35:03.396Z,99998.97
2022-11-13T11:41:41.227Z,99982.19
2022-11-13T11:44:27.206Z,99987.56
2022-11-13T11:46:58.547Z,99986.25
2022-11-13T11:50:07.977Z,99979.69
2022-11-13T11:57:15.939Z,99968.25
2022-11-13T12:00:45.896Z,99966.94
2022-11-13T12:04:36.840Z,99948.72
2022-11-13T12:13:55.446Z,99937.13
2022-11-13T12:19:35.596Z,99936.53
2022-11-13T12:22:12.396Z,99935.47
2022-11-13T12:24:57.266Z,99930.81
2022-11-13T12:27:34.856Z,99931.31
2022-11-13T12:30:15.746Z,99931.56
2022-11-13T12:33:10.492Z,99921.66
2022-11-13T12:35:41.586Z,99918.19
2022-11-13T12:38:21.457Z,99924.25
2022-11-13T12:40:56.560Z,99924.38
2022-11-13T12:43:49.157Z,99918.06
2022-11-13T12:46:19.686Z,99905.31
2022-11-13T12:48:49.530Z,99926.66
2022-11-13T12:51:21.207Z,99934.88
2022-11-13T12:53:51.586Z,99935.84
2022-11-13T12:56:34.123Z,99941.19
2022-11-13T13:02:02.508Z,99938.19
2022-11-13T13:04:44.755Z,99933.81
2022-11-13T13:07:27.147Z,99936.44
2022-11-13T13:10:07.376Z,99929.75
2022-11-13T13:12:48.095Z,99926.53
2022-11-13T13:15:30.945Z,99918.91
2022-11-13T13:18:12.445Z,99922.59
2022-11-13T13:20:43.415Z,99908.66
2022-11-13T13:23:14.326Z,99912.91
2022-11-13T13:25:42.846Z,99906.13
2022-11-13T13:28:21.745Z,99894.97
2022-11-13T13:31:02.236Z,99880.28
2022-11-13T13:33:51.645Z,99869.91
2022-11-13T13:36:34.045Z,99875.88
2022-11-13T13:39:09.775Z,99865.88
2022-11-13T13:41:46.196Z,99869.44
2022-11-13T13:44:33.065Z,99865.28
2022-11-13T13:47:01.489Z,99873.25
2022-11-13T13:49:31.356Z,99886.59
2022-11-13T13:51:59.845Z,99895.41
2022-11-13T13:54:31.135Z,99892.94
2022-11-13T13:57:00.125Z,99895.66
2022-11-13T13:59:33.754Z,99894.00
2022-11-13T14:02:03.923Z,99880.16
2022-11-13T14:04:35.775Z,99889.91
2022-11-13T14:07:04.762Z,99885.41
2022-11-13T14:09:33.226Z,99886.59
2022-11-13T14:12:08.033Z,99895.41
2022-11-13T14:14:41.067Z,99887.66
2022-11-13T14:17:12.138Z,99894.69
2022-11-13T14:19:42.155Z,99875.50
2022-11-13T14:22:13.434Z,99879.19
2022-11-13T14:24:47.856Z,99871.34
2022-11-13T14:27:21.726Z,99878.38
2022-11-13T14:29:56.867Z,99869.69
2022-11-13T14:32:29.135Z,99873.13
2022-11-13T14:35:06.845Z,99862.75
2022-11-13T14:37:37.364Z,99867.06
2022-11-13T14:40:15.435Z,99868.00
2022-11-13T14:42:48.275Z,99854.06
2022-11-13T14:45:19.375Z,99860.13
2022-11-13T14:47:58.415Z,99852.41
2022-11-13T14:50:30.616Z,99853.22
2022-11-13T14:53:02.249Z,99858.47
2022-11-13T14:55:32.769Z,99854.19
2022-11-13T14:58:01.456Z,99856.94
2022-11-13T15:00:33.916Z,99861.50
2022-11-13T15:03:03.530Z,99859.13
2022-11-13T15:05:33.516Z,99853.91
2022-11-13T15:08:02.370Z,99862.72
2022-11-13T15:10:31.166Z,99850.34
2022-11-13T15:13:00.506Z,99845.59
2022-11-13T15:15:31.588Z,99844.78
2022-11-13T15:18:00.236Z,99850.59
2022-11-13T15:20:30.706Z,99850.38
2022-11-13T15:23:01.877Z,99838.47
2022-11-13T15:25:30.296Z,99845.75
2022-11-13T15:27:58.745Z,99843.59
2022-11-13T15:30:27.206Z,99837.97
2022-11-13T15:32:57.377Z,99836.66
2022-11-13T15:35:25.707Z,99840.84
2022-11-13T15:37:54.497Z,99837.84
2022-11-13T15:40:24.511Z,99831.84
2022-11-13T15:42:52.909Z,99826.97
2022-11-13T15:45:21.316Z,99825.63
2022-11-13T15:47:49.697Z,99816.31
2022-11-13T15:50:18.446Z,99820.97
2022-11-13T15:52:49.085Z,99819.56
2022-11-13T15:55:30.265Z,99818.94
2022-11-13T15:57:59.950Z,99816.88
2022-11-13T16:00:30.163Z,99823.69
2022-11-13T16:02:59.081Z,99810.50
2022-11-13T16:05:29.752Z,99820.84
2022-11-13T16:07:59.754Z,99817.97
2022-11-13T16:10:30.230Z,99808.19
2022-11-13T16:12:58.713Z,99810.44
2022-11-13T16:15:27.171Z,99811.16
2022-11-13T16:17:58.601Z,99814.50
2022-11-13T16:20:27.121Z,99811.88
2022-11-13T16:22:56.353Z,99823.78
2022-11-13T16:25:25.511Z,99818.38
2022-11-13T16:27:55.610Z,99817.78
2022-11-13T16:30:25.610Z,99822.19
2022-11-13T16:32:54.395Z,99823.03
2022-11-13T16:35:22.879Z,99813.94
2022-11-13T16:37:51.421Z,99808.00
2022-11-13T16:40:24.761Z,99813.34
2022-11-13T16:42:55.290Z,99805.06
2022-11-13T16:45:24.221Z,99804.41
2022-11-13T16:47:52.760Z,99791.00
2022-11-13T16:50:24.056Z,99791.84
2022-11-13T16:52:52.995Z,99803.88
2022-11-13T16:55:21.691Z,99802.56
2022-11-13T16:57:50.430Z,99795.09
2022-11-13T17:00:21.470Z,99791.34
2022-11-13T17:02:52.891Z,99786.34
2022-11-13T17:05:22.971Z,99803.16
2022-11-13T17:07:52.289Z,99791.69
2022-11-13T17:10:31.429Z,99796.00
2022-11-13T17:13:00.909Z,99790.03
2022-11-13T17:15:30.970Z,99796.94
2022-11-13T17:18:00.590Z,99794.31
2022-11-13T17:20:29.111Z,99796.13
2022-11-13T17:22:57.649Z,99799.53
2022-11-13T17:25:28.300Z,99814.84
2022-11-13T17:27:57.151Z,99818.59
2022-11-13T17:30:25.882Z,99819.19
2022-11-13T17:32:56.096Z,99824.69
2022-11-13T17:35:26.421Z,99834.25
2022-11-13T17:37:54.924Z,99834.50
2022-11-13T17:40:23.369Z,99815.63
2022-11-13T17:42:52.527Z,99837.56
2022-11-13T17:45:21.766Z,99843.78
2022-11-13T17:47:50.295Z,99854.31
2022-11-13T17:50:21.451Z,99848.22
2022-11-13T17:52:52.328Z,99843.28
2022-11-13T17:55:22.905Z,99834.00
2022-11-13T17:57:51.515Z,99839.13
2022-11-13T18:00:41.046Z,99836.47
2022-11-13T18:03:10.177Z,99826.53
2022-11-13T18:05:40.978Z,99840.38
2022-11-13T18:08:11.773Z,99841.50
2022-11-13T18:10:41.080Z,99837.66
2022-11-13T18:13:10.942Z,99839.91
2022-11-13T18:15:40.926Z,99842.25
2022-11-13T18:18:09.931Z,99841.84
2022-11-13T18:20:42.431Z,99843.25
2022-11-13T18:23:10.927Z,99851.84
2022-11-13T18:25:45.486Z,99851.84
2022-11-13T18:28:18.716Z,99861.53
2022-11-13T18:30:50.722Z,99864.88
2022-11-13T18:33:35.197Z,99871.78
2022-11-13T18:36:05.656Z,99861.13
2022-11-13T18:38:34.257Z,99844.25
2022-11-13T18:41:04.198Z,99838.88
2022-11-13T18:43:32.788Z,99835.28
2022-11-13T18:46:04.689Z,99844.41
2022-11-13T18:48:34.518Z,99843.69
2022-11-13T18:51:07.627Z,99838.44
2022-11-13T18:53:37.167Z,99843.69
2022-11-13T18:56:07.792Z,99835.81
2022-11-13T18:58:38.147Z,99836.63
2022-11-13T19:01:10.500Z,99842.72
2022-11-13T19:03:43.879Z,99856.69
2022-11-13T19:06:22.569Z,99846.19
2022-11-13T19:08:57.575Z,99861.00
2022-11-13T19:11:27.216Z,99865.00
2022-11-13T19:13:55.894Z,99870.59
2022-11-13T19:16:26.267Z,99868.03
2022-11-13T19:18:56.771Z,99861.41
2022-11-13T19:21:29.967Z,99869.38
2022-11-13T19:23:58.926Z,99862.69
2022-11-13T19:26:27.662Z,99874.31
2022-11-13T19:28:56.935Z,99832.66
2022-11-13T19:31:28.121Z,99833.03
2022-11-13T19:33:57.942Z,99861.09
2022-11-13T19:36:31.722Z,99867.19
2022-11-13T19:39:01.050Z,99859.31
2022-11-13T19:41:31.106Z,99850.69
2022-11-13T19:44:00.858Z,99859.69
2022-11-13T19:46:32.188Z,99851.69
2022-11-13T19:49:01.296Z,99863.53
2022-11-13T19:51:31.411Z,99864.97
2022-11-13T19:54:01.166Z,99851.88
2022-11-13T19:56:30.147Z,99859.03
2022-11-13T19:58:58.874Z,99841.47
2022-11-13T20:01:29.062Z,99863.53
2022-11-13T20:03:58.966Z,99821.13
2022-11-13T20:06:28.932Z,99821.13
2022-11-13T20:08:59.778Z,99845.75
2022-11-13T20:11:28.738Z,99816.47
2022-11-13T20:13:57.681Z,99832.34
2022-11-13T20:16:26.619Z,99804.53
2022-11-13T20:18:58.457Z,99795.09
2022-11-13T20:21:27.686Z,99800.25
2022-11-13T20:23:59.941Z,99825.19
2022-11-13T20:26:29.056Z,99814.56
2022-11-13T20:28:57.451Z,99833.09
2022-11-13T20:31:27.990Z,99828.91
2022-11-13T20:33:58.416Z,99816.91
2022-11-13T20:36:27.232Z,99839.69
2022-11-13T20:38:57.692Z,99832.78
2022-11-13T20:41:28.221Z,99843.03
2022-11-13T20:44:01.988Z,99837.06
2022-11-13T20:46:31.632Z,99835.03
2022-11-13T20:49:00.227Z,99856.31
2022-11-13T20:51:30.124Z,99868.31
2022-11-13T20:53:58.717Z,99885.22
2022-11-13T20:56:29.018Z,99881.72
2022-11-13T20:58:57.566Z,99888.91
2022-11-13T21:01:27.693Z,99884.34
2022-11-13T21:03:56.334Z,99866.81
2022-11-13T21:06:26.429Z,99875.78
2022-11-13T21:08:56.588Z,99876.03
2022-11-13T21:11:26.797Z,99855.03
2022-11-13T21:13:57.736Z,99855.97
2022-11-13T21:16:28.307Z,99857.66
2022-11-13T21:18:57.827Z,99843.78
2022-11-13T21:21:29.158Z,99832.47
2022-11-13T21:23:58.996Z,99783.63
2022-11-13T21:26:28.597Z,99751.31
2022-11-13T21:29:00.491Z,99727.56
2022-11-13T21:31:29.584Z,99780.28
2022-11-13T21:33:59.529Z,99775.09
2022-11-13T21:36:30.196Z,99802.78
2022-11-13T21:38:58.938Z,99824.50
2022-11-13T21:41:27.426Z,99837.38
2022-11-13T21:44:00.500Z,99797.13
2022-11-13T21:46:31.287Z,99748.00
2022-11-13T21:49:01.327Z,99746.22
2022-11-13T21:51:31.017Z,99794.25
2022-11-13T21:53:59.977Z,99813.34
2022-11-13T21:56:30.822Z,99802.84
2022-11-13T21:59:00.957Z,99787.88
2022-11-13T22:01:37.544Z,99822.06
2022-11-13T22:04:07.158Z,99860.53
2022-11-13T22:06:37.548Z,99854.44
2022-11-13T22:09:08.246Z,99843.91
2022-11-13T22:11:38.446Z,99838.66
2022-11-13T22:14:08.876Z,99836.03
2022-11-13T22:16:39.458Z,99846.56
2022-11-13T22:19:11.528Z,99852.53
2022-11-13T22:21:40.347Z,99847.25
2022-11-13T22:24:09.776Z,99852.53
2022-11-13T22:26:39.788Z,99841.16
2022-11-13T22:29:10.398Z,99836.75
2022-11-13T22:31:40.277Z,99840.31
2022-11-13T22:34:09.097Z,99835.88
2022-11-13T22:37:36.337Z,99825.38
2022-11-13T22:40:08.087Z,99820.13
2022-11-13T22:42:40.766Z,99812.22
2022-11-13T22:45:23.147Z,99817.50
2022-11-13T22:47:56.356Z,99808.41
2022-11-13T22:50:26.946Z,99816.97
2022-11-13T22:52:59.067Z,99816.13
2022-11-13T22:55:31.366Z,99817.94
2022-11-13T22:58:00.606Z,99825.09
2022-11-13T23:00:30.507Z,99827.53
2022-11-13T23:03:04.225Z,99830.72
2022-11-13T23:05:38.328Z,99829.66
2022-11-13T23:08:09.778Z,99826.88
2022-11-13T23:10:38.827Z,99824.38
2022-11-13T23:13:07.327Z,99827.97
2022-11-13T23:15:37.897Z,99827.28
2022-11-13T23:18:09.800Z,99829.91
2022-11-13T23:20:41.009Z,99822.03
2022-11-13T23:23:10.089Z,99824.75
2022-11-13T23:25:38.727Z,99817.44
2022-11-13T23:28:08.006Z,99820.22
2022-11-13T23:30:38.226Z,99828.22
2022-11-13T23:33:10.474Z,99825.47
2022-11-13T23:35:43.018Z,99825.34
2022-11-13T23:38:14.717Z,99823.16
2022-11-13T23:40:45.796Z,99813.19
2022-11-13T23:43:16.417Z,99810.31
2022-11-13T23:45:48.456Z,99818.91
2022-11-13T23:48:19.177Z,99815.31
2022-11-13T23:50:51.532Z,99813.25
2022-11-13T23:53:23.356Z,99808.13
2022-11-13T23:55:54.397Z,99798.56
2022-11-13T23:58:26.079Z,99798.69
